createdAt,value
2023-02-24T00:00:03.414Z,1011.95
2023-02-24T00:05:03.072Z,1012.03
2023-02-24T00:10:02.827Z,1012.04
2023-02-24T00:15:03.596Z,1012.06
2023-02-24T00:20:02.694Z,1011.99
2023-02-24T00:25:03.608Z,1011.95
2023-02-24T00:30:03.523Z,1011.97
2023-02-24T00:35:03.483Z,1011.91
2023-02-24T00:40:03.060Z,1011.95
2023-02-24T00:45:02.809Z,1011.87
2023-02-24T00:50:03.553Z,1011.71
2023-02-24T00:55:03.292Z,1011.8
2023-02-24T01:00:03.536Z,1011.6
2023-02-24T01:05:03.586Z,1011.6
2023-02-24T01:10:03.201Z,1011.57
2023-02-24T01:15:03.028Z,1011.59
2023-02-24T01:20:02.859Z,1011.5
2023-02-24T01:25:03.858Z,1011.48
2023-02-24T01:30:03.426Z,1011.48
2023-02-24T01:35:03.180Z,1011.32
2023-02-24T01:40:02.885Z,1011.27
2023-02-24T01:45:03.678Z,1011.25
2023-02-24T01:50:03.475Z,1011.24
2023-02-24T01:55:03.378Z,1011.29
2023-02-24T02:00:03.133Z,1011.3
2023-02-24T02:05:02.706Z,1011.31
2023-02-24T02:10:03.440Z,1011.2
2023-02-24T02:15:03.802Z,1011.12
2023-02-24T02:20:03.402Z,1011.04
2023-02-24T02:25:03.162Z,1011.08
2023-02-24T02:30:03.558Z,1011.14
2023-02-24T02:35:03.263Z,1011.11
2023-02-24T02:40:03.052Z,1011.03
2023-02-24T02:45:02.955Z,1010.95
2023-02-24T02:50:03.615Z,1011.02
2023-02-24T02:55:03.409Z,1011.13
2023-02-24T03:00:03.239Z,1011.05
2023-02-24T03:05:03.545Z,1010.98
2023-02-24T03:10:03.037Z,1010.95
2023-02-24T03:15:03.657Z,1010.9
2023-02-24T03:20:03.486Z,1010.96
2023-02-24T03:25:03.246Z,1010.94
2023-02-24T03:30:02.892Z,1010.82
2023-02-24T03:35:02.956Z,1010.97
2023-02-24T03:40:02.712Z,1011.12
2023-02-24T03:45:02.890Z,1011
2023-02-24T03:50:03.513Z,1010.9
2023-02-24T03:55:03.383Z,1010.94
2023-02-24T04:00:03.380Z,1010.94
2023-02-24T04:05:03.533Z,1010.96
2023-02-24T04:10:02.847Z,1010.83
2023-02-24T04:15:03.601Z,1010.87
2023-02-24T04:20:03.462Z,1010.8
2023-02-24T04:25:03.135Z,1010.64
2023-02-24T04:30:02.839Z,1010.57
2023-02-24T04:35:02.844Z,1010.55
2023-02-24T04:40:03.400Z,1010.54
2023-02-24T04:45:03.467Z,1010.57
2023-02-24T04:50:03.122Z,1010.44
2023-02-24T04:55:03.151Z,1010.36
2023-02-24T05:00:03.632Z,1010.25
2023-02-24T05:05:03.386Z,1010.34
2023-02-24T05:10:03.466Z,1010.3
2023-02-24T05:15:03.303Z,1010.22
2023-02-24T05:20:03.039Z,1010.2
2023-02-24T05:25:02.744Z,1010.13
2023-02-24T05:30:03.713Z,1010.13
2023-02-24T05:35:03.259Z,1009.98
2023-02-24T05:40:03.429Z,1010.11
2023-02-24T05:45:03.146Z,1009.99
2023-02-24T05:50:02.801Z,1009.92
2023-02-24T05:55:04.043Z,1009.89
2023-02-24T06:00:03.286Z,1009.89
2023-02-24T06:05:02.955Z,1009.77
2023-02-24T06:10:02.671Z,1009.74
2023-02-24T06:15:03.298Z,1009.63
2023-02-24T06:20:03.199Z,1009.65
2023-02-24T06:25:03.018Z,1009.65
2023-02-24T06:30:02.855Z,1009.5
2023-02-24T06:35:02.973Z,1009.49
2023-02-24T06:40:02.756Z,1009.38
2023-02-24T06:45:02.823Z,1009.41
2023-02-24T06:50:03.520Z,1009.35
2023-02-24T06:55:03.241Z,1009.36
2023-02-24T07:00:03.008Z,1009.31
2023-02-24T07:05:02.706Z,1009.25
2023-02-24T07:10:03.417Z,1009.06
2023-02-24T07:15:03.159Z,1009.11
2023-02-24T07:20:02.932Z,1009.06
2023-02-24T07:25:03.611Z,1009
2023-02-24T07:30:03.410Z,1008.81
2023-02-24T07:35:03.522Z,1008.79
2023-02-24T07:40:03.064Z,1008.8
2023-02-24T07:45:03.160Z,1008.74
2023-02-24T07:50:03.510Z,1008.61
2023-02-24T07:55:03.487Z,1008.52
2023-02-24T08:00:02.969Z,1008.59
2023-02-24T08:05:02.813Z,1008.53
2023-02-24T08:10:02.982Z,1008.44
2023-02-24T08:15:02.828Z,1008.27
2023-02-24T08:20:03.516Z,1008.12
2023-02-24T08:25:03.205Z,1007.98
2023-02-24T08:30:02.977Z,1007.86
2023-02-24T08:35:03.646Z,1007.87
2023-02-24T08:40:03.445Z,1007.71
2023-02-24T08:45:03.522Z,1007.65
2023-02-24T08:50:03.239Z,1007.63
2023-02-24T08:55:03.369Z,1007.5
2023-02-24T09:00:02.772Z,1007.44
2023-02-24T09:05:03.976Z,1007.39
2023-02-24T09:10:03.266Z,1007.35
2023-02-24T09:15:03.168Z,1007.36
2023-02-24T09:20:03.255Z,1007.23
2023-02-24T09:25:02.801Z,1007.17
2023-02-24T09:30:03.497Z,1007.06
2023-02-24T09:35:03.377Z,1006.92
2023-02-24T09:40:03.058Z,1006.93
2023-02-24T09:45:02.759Z,1006.79
2023-02-24T09:50:03.466Z,1006.83
2023-02-24T09:55:03.508Z,1006.76
2023-02-24T10:00:02.967Z,1006.74
2023-02-24T10:05:02.681Z,1006.62
2023-02-24T10:10:03.428Z,1006.64
2023-02-24T10:15:03.314Z,1006.42
2023-02-24T10:20:03.038Z,1006.42
2023-02-24T10:25:02.954Z,1006.27
2023-02-24T10:30:03.126Z,1006.26
2023-02-24T10:35:03.467Z,1006.14
2023-02-24T10:40:03.258Z,1006.14
2023-02-24T10:45:10.115Z,1006.02
2023-02-24T10:50:02.888Z,1005.98
2023-02-24T10:55:03.712Z,1005.74
2023-02-24T11:00:03.456Z,1005.69
2023-02-24T11:05:03.342Z,1005.55
2023-02-24T11:10:03.381Z,1005.53
2023-02-24T11:15:02.968Z,1005.43
2023-02-24T11:20:02.817Z,1005.36
2023-02-24T11:25:03.478Z,1005.15
2023-02-24T11:30:03.219Z,1005.01
2023-02-24T11:35:02.947Z,1004.95
2023-02-24T11:40:03.630Z,1004.81
2023-02-24T11:45:03.690Z,1004.68
2023-02-24T11:50:05.670Z,1004.66
2023-02-24T11:55:03.665Z,1004.46
2023-02-24T12:00:03.284Z,1004.47
2023-02-24T12:05:03.277Z,1004.34
2023-02-24T12:10:18.380Z,1004.28
2023-02-24T12:15:03.110Z,1004.25
2023-02-24T12:20:03.129Z,1004.13
2023-02-24T12:25:02.673Z,1004.16
2023-02-24T12:30:03.536Z,1004.07
2023-02-24T12:35:03.183Z,1004
2023-02-24T12:40:02.869Z,1004.08
2023-02-24T12:45:03.660Z,1003.95
2023-02-24T12:50:02.752Z,1003.99
2023-02-24T12:55:03.984Z,1003.78
2023-02-24T13:00:02.772Z,1003.78
2023-02-24T13:05:03.541Z,1003.73
2023-02-24T13:10:03.537Z,1003.6
2023-02-24T13:15:03.392Z,1003.41
2023-02-24T13:20:03.319Z,1003.35
2023-02-24T13:25:03.218Z,1003.3
2023-02-24T13:35:03.607Z,1003.15
2023-02-24T13:40:03.334Z,1003.1
2023-02-24T13:45:03.035Z,1003.12
2023-02-24T13:50:02.802Z,1003.02
2023-02-24T13:55:04.109Z,1002.87
2023-02-24T14:00:03.262Z,1002.82
2023-02-24T14:05:03.261Z,1002.64
2023-02-24T14:10:02.895Z,1002.57
2023-02-24T14:15:02.602Z,1002.45
2023-02-24T14:20:03.597Z,1002.5
2023-02-24T14:25:03.629Z,1002.39
2023-02-24T14:30:03.388Z,1002.29
2023-02-24T14:35:03.028Z,1002.29
2023-02-24T14:40:02.979Z,1002.24
2023-02-24T14:45:03.678Z,1002.1
2023-02-24T14:50:03.576Z,1001.99
2023-02-24T14:55:03.264Z,1001.81
2023-02-24T15:00:03.035Z,1001.86
2023-02-24T15:05:03.619Z,1001.68
2023-02-24T15:10:03.469Z,1001.61
2023-02-24T15:15:03.086Z,1001.51
2023-02-24T15:20:03.017Z,1001.45
2023-02-24T15:25:03.558Z,1001.34
2023-02-24T15:30:03.352Z,1001.41
2023-02-24T15:35:03.128Z,1001.23
2023-02-24T15:40:03.437Z,1001.2
2023-02-24T15:45:03.694Z,1001.15
2023-02-24T15:50:03.646Z,1001.13
2023-02-24T15:55:03.507Z,1001.01
2023-02-24T16:00:03.405Z,1000.85
2023-02-24T16:05:02.823Z,1000.97
2023-02-24T16:10:03.677Z,1000.81
2023-02-24T16:15:03.649Z,1000.83
2023-02-24T16:20:03.411Z,1000.76
2023-02-24T16:25:03.308Z,1000.72
2023-02-24T16:30:03.095Z,1000.61
2023-02-24T16:35:02.945Z,1000.54
2023-02-24T16:40:03.578Z,1000.5
2023-02-24T16:45:03.361Z,1000.43
2023-02-24T16:50:03.084Z,1000.37
2023-02-24T16:55:03.492Z,1000.35
2023-02-24T17:00:03.906Z,1000.36
2023-02-24T17:05:03.390Z,1000.28
2023-02-24T17:10:03.144Z,1000.2
2023-02-24T17:15:02.941Z,1000.14
2023-02-24T17:20:02.841Z,1000.2
2023-02-24T17:25:02.764Z,1000.22
2023-02-24T17:30:03.748Z,1000
2023-02-24T17:35:03.597Z,1000.08
2023-02-24T17:40:07.128Z,1000.02
2023-02-24T17:45:02.927Z,1000.02
2023-02-24T17:50:04.129Z,1000.06
2023-02-24T17:55:03.533Z,999.99
2023-02-24T18:00:04.475Z,1000.09
2023-02-24T18:05:03.338Z,999.87
2023-02-24T18:10:02.901Z,999.73
2023-02-24T18:15:10.116Z,999.69
2023-02-24T18:20:02.849Z,999.57
2023-02-24T18:25:02.810Z,999.47
2023-02-24T18:30:03.099Z,999.43
2023-02-24T18:35:03.289Z,999.37
2023-02-24T18:40:03.130Z,999.3
2023-02-24T18:45:02.988Z,999.35
2023-02-24T18:50:03.371Z,999.21
2023-02-24T18:55:03.116Z,999.14
2023-02-24T19:00:03.681Z,999.04
2023-02-24T19:05:03.397Z,999.03
2023-02-24T19:10:03.188Z,999.01
2023-02-24T19:15:02.858Z,998.92
2023-02-24T19:20:03.551Z,998.82
2023-02-24T19:25:02.749Z,998.79
2023-02-24T19:30:03.707Z,998.69
2023-02-24T19:35:03.514Z,998.73
2023-02-24T19:40:03.497Z,998.68
2023-02-24T19:45:03.301Z,998.71
2023-02-24T19:50:03.242Z,998.76
2023-02-24T19:55:03.292Z,998.7
2023-02-24T20:00:02.836Z,998.58
2023-02-24T20:05:04.093Z,998.62
2023-02-24T20:10:03.380Z,998.62
2023-02-24T20:15:03.188Z,998.51
2023-02-24T20:20:02.996Z,998.5
2023-02-24T20:25:02.725Z,998.46
2023-02-24T20:30:02.792Z,998.42
2023-02-24T20:35:03.837Z,998.35
2023-02-24T20:40:03.323Z,998.33
2023-02-24T20:45:03.605Z,998.34
2023-02-24T20:50:03.368Z,998.23
2023-02-24T20:55:03.102Z,998.32
2023-02-24T21:00:04.620Z,998.29
2023-02-24T21:05:04.212Z,998.25
2023-02-24T21:10:03.782Z,998.19
2023-02-24T21:20:03.029Z,998.09
2023-02-24T21:25:02.815Z,998.04
2023-02-24T21:30:02.888Z,997.98
2023-02-24T21:35:03.886Z,997.91
2023-02-24T21:40:03.516Z,997.94
2023-02-24T21:45:03.307Z,997.95
2023-02-24T21:50:03.599Z,997.91
2023-02-24T21:55:03.092Z,997.89
2023-02-24T22:00:03.235Z,997.87
2023-02-24T22:05:03.149Z,997.84
2023-02-24T22:10:03.148Z,997.64
2023-02-24T22:15:02.889Z,997.54
2023-02-24T22:20:02.632Z,997.61
2023-02-24T22:25:03.479Z,997.53
2023-02-24T22:30:03.426Z,997.52
2023-02-24T22:35:03.052Z,997.52
2023-02-24T22:40:03.265Z,997.48
2023-02-24T22:45:03.229Z,997.41
2023-02-24T22:50:02.811Z,997.39
2023-02-24T22:55:03.984Z,997.3
2023-02-24T23:00:03.426Z,997.36
2023-02-24T23:05:03.699Z,997.17
2023-02-24T23:10:03.622Z,997.21
2023-02-24T23:15:03.308Z,997.14
2023-02-24T23:20:03.793Z,997.09
2023-02-24T23:25:03.089Z,997.15
2023-02-24T23:30:02.900Z,997.18
2023-02-24T23:35:03.524Z,997.12
2023-02-24T23:40:03.295Z,997.14
2023-02-24T23:45:03.271Z,997.04
2023-02-24T23:50:02.764Z,997.03
2023-02-24T23:55:04.262Z,996.99
